Burr, Texas
Current Conditions -  °F | °C
As of 1:55 PM on Wednesday 17 Dec 2014 (Local Time) from KARM Reporting Station
Overcast Overcast  
Wind Chill: 68°   Ceiling: 2900
Heat Index: 68°   Visibility: 10mi
Dew Point: 58°   Wind: 14mph
Humidity: 69%   Direction: 110°ESE
Pressure: 30.08"   Gusts: NA
Location:  29.2926°N, 96.034°W
Report Text: KARM 171955Z AUTO 11012KT 10SM BKN029 BKN043 OVC060 20/14 A3008 RMK AO2 T02010142
Loading
Personal Weather Stations






























Interactive Weather Map New forecast layout! Learn more

10-Day Weather Forecast

Advertisements
Track Severe Weather on mobile